Aikoumaru No.8 — JD3288 — position and weather

sailwx.info

Track history (hours):
 
Tides and Currents Weather Stations Pressure Air Temp Water Temp Dewpoint Dewpoint Depression Visibility Wind Speed Wind Dir Waves Ship Positions

Aikoumaru No.8

Last reported at 2016-Jul-24 12:33 UTC. Time now 2016-Jul-24 12:54 UTC.
Position N 34°30' E 135°12'.

Length 74 m; draft 4.8 m.

Type: Cargo ship. MMSI: 431003153.

Date/timePositionNaut miles runAvg speedWind from/ knotsBaromVisibWave heightAir tempDewpointWater temp
2016-Jul-24 12:33N 34°30' E 135°12'1513.4
2016-Jul-24 11:28N 34°18' E 135°04'  
2016-Jul-20 11:29N 34°37' E 134°56'1213.3
2016-Jul-20 10:33N 34°36' E 135°11'1312.5
2016-Jul-20 09:33N 34°39' E 135°26'1 0.6
2016-Jul-20 07:21N 34°38' E 135°28'0 0.0
2016-Jul-20 04:08N 34°38' E 135°28'2 3.6
2016-Jul-20 03:33N 34°39' E 135°25'3 1.4
2016-Jul-20 01:33N 34°37' E 135°22'1211.8
2016-Jul-20 00:33N 34°28' E 135°13'1212.1
2016-Jul-19 23:33N 34°19' E 135°04'1212.2
2016-Jul-19 22:33N 34°06' E 135°03'228 6.7
2016-Jul-18 12:29N 35°03' E 139°31'1411.1
2016-Jul-18 11:15N 35°11' E 139°45'811.0
2016-Jul-18 10:33N 35°18' E 139°44'10 9.8
2016-Jul-18 09:33N 35°27' E 139°48'1111.3
2016-Jul-18 08:33N 35°36' E 139°57'4 3.6
2016-Jul-18 07:23N 35°40' E 139°57'0 0.0
2016-Jul-18 06:23N 35°40' E 139°57'0 0.0
2016-Jul-18 04:29N 35°40' E 139°57'0 0.0
2016-Jul-18 03:05N 35°40' E 139°57'0 0.0
2016-Jul-18 01:17N 35°40' E 139°57'0 0.0
2016-Jul-18 00:05N 35°40' E 139°57'0 0.0
2016-Jul-17 23:23N 35°40' E 139°57'0 0.0
2016-Jul-16 13:29N 35°40' E 139°57'3 3.2
2016-Jul-16 12:31N 35°37' E 139°58'0 0.0
2016-Jul-16 11:31N 35°37' E 139°58'0 0.0
2016-Jul-16 10:31N 35°37' E 139°58'0 0.0
2016-Jul-16 09:31N 35°37' E 139°58'0 0.0
2016-Jul-16 08:19N 35°37' E 139°58'0 0.0
2016-Jul-16 07:31N 35°37' E 139°58'0 0.0
2016-Jul-16 06:25N 35°37' E 139°58'4 2.0
2016-Jul-16 04:28N 35°41' E 139°57'0 0.0
2016-Jul-16 03:13N 35°41' E 139°57'0 0.0
2016-Jul-16 02:25N 35°41' E 139°57'0 0.0
2016-Jul-16 01:31N 35°41' E 139°57'0 0.0
2016-Jul-16 00:31N 35°41' E 139°57'0 0.0
2016-Jul-15 23:28N 35°41' E 139°57'4 4.5
2016-Jul-15 22:33N 35°37' E 139°58'1 0.9
2016-Jul-15 21:31N 35°36' E 139°58'0 0.0
2016-Jul-15 20:31N 35°36' E 139°58'0 0.0
2016-Jul-15 19:25N 35°36' E 139°58'0 0.0
2016-Jul-15 18:31N 35°36' E 139°58'0 0.0
2016-Jul-15 17:31N 35°36' E 139°58'0 0.0
2016-Jul-15 16:31N 35°36' E 139°58'4 3.7
2016-Jul-15 15:33N 35°33' E 139°56'1111.2
2016-Jul-15 14:33N 35°25' E 139°47'10 9.9
2016-Jul-15 13:33N 35°15' E 139°47'1010.2
2016-Jul-15 12:33N 35°05' E 139°42'  
Track history (hours):
 
Tides and Currents Weather Stations Pressure Air Temp Water Temp Dewpoint Dewpoint Depression Visibility Wind Speed Wind Dir Waves Ship Positions

Aikoumaru No.8

Last reported at 2016-Jul-24 12:33 UTC. Time now 2016-Jul-24 12:54 UTC.
Position N 34°30' E 135°12'.

Length 74 m; draft 4.8 m.

Type: Cargo ship. MMSI: 431003153.

Date/timePositionNaut miles runAvg speedWind from/ knotsBaromVisibWave heightAir tempDewpointWater temp
2016-Jul-24 12:33N 34°30' E 135°12'1513.4
2016-Jul-24 11:28N 34°18' E 135°04'  
2016-Jul-20 11:29N 34°37' E 134°56'1213.3
2016-Jul-20 10:33N 34°36' E 135°11'1312.5
2016-Jul-20 09:33N 34°39' E 135°26'1 0.6
2016-Jul-20 07:21N 34°38' E 135°28'0 0.0
2016-Jul-20 04:08N 34°38' E 135°28'2 3.6
2016-Jul-20 03:33N 34°39' E 135°25'3 1.4
2016-Jul-20 01:33N 34°37' E 135°22'1211.8
2016-Jul-20 00:33N 34°28' E 135°13'1212.1
2016-Jul-19 23:33N 34°19' E 135°04'1212.2
2016-Jul-19 22:33N 34°06' E 135°03'228 6.7
2016-Jul-18 12:29N 35°03' E 139°31'1411.1
2016-Jul-18 11:15N 35°11' E 139°45'811.0
2016-Jul-18 10:33N 35°18' E 139°44'10 9.8
2016-Jul-18 09:33N 35°27' E 139°48'1111.3
2016-Jul-18 08:33N 35°36' E 139°57'4 3.6
2016-Jul-18 07:23N 35°40' E 139°57'0 0.0
2016-Jul-18 06:23N 35°40' E 139°57'0 0.0
2016-Jul-18 04:29N 35°40' E 139°57'0 0.0
2016-Jul-18 03:05N 35°40' E 139°57'0 0.0
2016-Jul-18 01:17N 35°40' E 139°57'0 0.0
2016-Jul-18 00:05N 35°40' E 139°57'0 0.0
2016-Jul-17 23:23N 35°40' E 139°57'0 0.0
2016-Jul-16 13:29N 35°40' E 139°57'3 3.2
2016-Jul-16 12:31N 35°37' E 139°58'0 0.0
2016-Jul-16 11:31N 35°37' E 139°58'0 0.0
2016-Jul-16 10:31N 35°37' E 139°58'0 0.0
2016-Jul-16 09:31N 35°37' E 139°58'0 0.0
2016-Jul-16 08:19N 35°37' E 139°58'0 0.0
2016-Jul-16 07:31N 35°37' E 139°58'0 0.0
2016-Jul-16 06:25N 35°37' E 139°58'4 2.0
2016-Jul-16 04:28N 35°41' E 139°57'0 0.0
2016-Jul-16 03:13N 35°41' E 139°57'0 0.0
2016-Jul-16 02:25N 35°41' E 139°57'0 0.0
2016-Jul-16 01:31N 35°41' E 139°57'0 0.0
2016-Jul-16 00:31N 35°41' E 139°57'0 0.0
2016-Jul-15 23:28N 35°41' E 139°57'4 4.5
2016-Jul-15 22:33N 35°37' E 139°58'1 0.9
2016-Jul-15 21:31N 35°36' E 139°58'0 0.0
2016-Jul-15 20:31N 35°36' E 139°58'0 0.0
2016-Jul-15 19:25N 35°36' E 139°58'0 0.0
2016-Jul-15 18:31N 35°36' E 139°58'0 0.0
2016-Jul-15 17:31N 35°36' E 139°58'0 0.0
2016-Jul-15 16:31N 35°36' E 139°58'4 3.7
2016-Jul-15 15:33N 35°33' E 139°56'1111.2
2016-Jul-15 14:33N 35°25' E 139°47'10 9.9
2016-Jul-15 13:33N 35°15' E 139°47'1010.2
2016-Jul-15 12:33N 35°05' E 139°42'  

Dump ship's entire track history